Willsboro Point, New York
Current Conditions -  °F | °C
As of 4:54 PM on Friday 28 Nov 2014 (Local Time) from KBTV Reporting Station
Broken Clouds Broken Clouds  
Wind Chill: 16°   Ceiling: 4900
Heat Index: 26°   Visibility: 10mi
Dew Point: 11°   Wind: 10mph
Humidity: 53%   Direction: 300°WNW
Pressure: 30.15"   Gusts: NA
Location:  44.3585°N, 73.4161°W
Report Text: KBTV 282154Z 30009KT 10SM FEW039 BKN049 BKN060 M03/M12 A3015 RMK AO2 SLP214 INTMT SHSN OBSCG MTNS E-SE T10331117
Loading
Personal Weather Stations






























Interactive Weather Map New forecast layout! Learn more

10-Day Weather Forecast

Advertisements
Track Severe Weather on mobile